KBCB/BCB METAR and TAF weather

Enter ICAO airport designator
Station Type Date Time Source
KBCB METAR 2018/01/19 17:35 UTC NOAA

KBCB 191735Z AUTO 29007KT 250V310 10SM CLR 06/M14 A3017 RMK AO2 T00601139


Station Type Date Time Source
KBCB Decoded METAR 2018/01/19 17:35 UTC NOAA

Virginia Tech Airport, VA, United States (KBCB) 37-13N 080-25W
Jan 19, 2018 - 12:35 PM EST / 2018.01.19 1735 UTC
Wind: from the WNW (290 degrees) at 8 MPH (7 KT) (direction variable):0
Visibility: 10 mile(s):0
Sky conditions: clear
Temperature: 42.8 F (6.0 C)
Dew Point: 7.0 F (-13.9 C)
Relative Humidity: 22%
Pressure (altimeter): 30.17 in. Hg (1021 hPa)
ob: KBCB 191735Z AUTO 29007KT 250V310 10SM CLR 06/M14 A3017 RMK AO2 T00601139
cycle: 17

Station Type Date Time Source
KBCB TAF 2018/01/19 18:24 UTC NOAA

TAF KBCB 191721Z 1918/2018 27008KT P6SM FEW250
FM201500 28012KT P6SM FEW250


Example: see airport list